createdAt,value
2022-11-18T00:00:40.567Z,6.47
2022-11-18T00:01:42.158Z,6.60
2022-11-18T00:02:43.770Z,6.40
2022-11-18T00:03:46.028Z,6.68
2022-11-18T00:04:47.593Z,6.32
2022-11-18T00:05:59.052Z,5.85
2022-11-18T00:07:00.671Z,6.10
2022-11-18T00:08:02.502Z,5.68
2022-11-18T00:09:04.276Z,6.00
2022-11-18T00:10:06.343Z,6.00
2022-11-18T00:11:12.912Z,6.30
2022-11-18T00:12:33.762Z,5.97
2022-11-18T00:13:53.956Z,6.57
2022-11-18T00:14:55.470Z,5.82
2022-11-18T00:16:15.140Z,5.82
2022-11-18T00:17:16.710Z,5.95
2022-11-18T00:18:18.215Z,5.80
2022-11-18T00:19:22.307Z,5.78
2022-11-18T00:20:23.882Z,6.10
2022-11-18T00:21:25.415Z,6.07
2022-11-18T00:22:29.861Z,5.70
2022-11-18T00:23:31.822Z,5.75
2022-11-18T00:24:34.080Z,6.22
2022-11-18T00:25:35.615Z,5.82
2022-11-18T00:26:37.385Z,6.18
2022-11-18T00:27:39.065Z,5.97
2022-11-18T00:28:42.062Z,5.63
2022-11-18T00:29:43.623Z,5.82
2022-11-18T00:30:45.179Z,5.82
2022-11-18T00:31:47.150Z,6.30
2022-11-18T00:32:48.704Z,5.93
2022-11-18T00:33:50.355Z,5.25
2022-11-18T00:34:51.996Z,5.88
2022-11-18T00:35:54.882Z,5.97
2022-11-18T00:36:56.485Z,6.18
2022-11-18T00:37:58.026Z,5.93
2022-11-18T00:38:59.569Z,5.85
2022-11-18T00:40:01.159Z,6.10
2022-11-18T00:41:05.692Z,6.00
2022-11-18T00:42:25.598Z,6.20
2022-11-18T00:43:27.169Z,5.93
2022-11-18T00:44:28.807Z,5.47
2022-11-18T00:45:30.337Z,5.32
2022-11-18T00:46:31.894Z,6.05
2022-11-18T00:47:33.469Z,5.60
2022-11-18T00:48:35.596Z,5.63
2022-11-18T00:49:37.091Z,5.63
2022-11-18T00:50:38.727Z,6.13
2022-11-18T00:51:40.299Z,6.32
2022-11-18T00:52:41.946Z,5.80
2022-11-18T00:53:44.191Z,5.32
2022-11-18T00:54:45.736Z,6.25
2022-11-18T00:55:47.736Z,5.95
2022-11-18T00:56:49.344Z,5.45
2022-11-18T00:57:50.917Z,5.38
2022-11-18T00:58:52.470Z,5.90
2022-11-18T00:59:54.004Z,5.50
2022-11-18T01:00:55.882Z,5.55
2022-11-18T01:01:57.423Z,5.70
2022-11-18T01:02:58.989Z,5.85
2022-11-18T01:04:00.710Z,5.60
2022-11-18T01:05:02.258Z,5.82
2022-11-18T01:06:03.882Z,6.03
2022-11-18T01:07:05.515Z,5.82
2022-11-18T01:08:08.615Z,5.78
2022-11-18T01:09:10.208Z,5.78
2022-11-18T01:10:11.755Z,5.88
2022-11-18T01:11:32.080Z,5.68
2022-11-18T01:12:54.439Z,5.63
2022-11-18T01:13:56.259Z,5.80
2022-11-18T01:14:59.585Z,5.40
2022-11-18T01:16:01.116Z,5.45
2022-11-18T01:17:02.707Z,5.60
2022-11-18T01:18:04.258Z,5.97
2022-11-18T01:19:05.840Z,5.30
2022-11-18T01:20:07.897Z,5.65
2022-11-18T01:21:09.478Z,5.78
2022-11-18T01:22:11.051Z,5.18
2022-11-18T01:23:13.718Z,5.50
2022-11-18T01:24:15.557Z,5.68
2022-11-18T01:25:17.119Z,5.85
2022-11-18T01:26:18.763Z,5.13
2022-11-18T01:27:20.337Z,5.38
2022-11-18T01:28:24.080Z,6.28
2022-11-18T01:29:25.842Z,5.55
2022-11-18T01:30:27.455Z,5.32
2022-11-18T01:31:29.051Z,5.40
2022-11-18T01:32:30.572Z,5.55
2022-11-18T01:33:32.352Z,5.50
2022-11-18T01:34:34.038Z,5.65
2022-11-18T01:35:41.052Z,5.50
2022-11-18T01:36:42.589Z,5.65
2022-11-18T01:37:44.133Z,5.70
2022-11-18T01:38:46.370Z,5.72
2022-11-18T01:39:48.030Z,5.70
2022-11-18T01:40:49.690Z,5.60
2022-11-18T01:41:51.334Z,5.40
2022-11-18T01:42:53.072Z,5.53
2022-11-18T01:43:58.887Z,5.40
2022-11-18T01:45:24.452Z,5.63
2022-11-18T01:46:28.731Z,5.93
2022-11-18T01:47:36.983Z,5.55
2022-11-18T01:48:39.233Z,5.68
2022-11-18T01:49:40.893Z,5.50
2022-11-18T01:50:50.192Z,5.60
2022-11-18T01:51:57.122Z,5.43
2022-11-18T01:53:04.863Z,5.63
2022-11-18T01:54:12.292Z,5.43
2022-11-18T01:55:18.607Z,5.65
2022-11-18T01:56:30.968Z,5.90
2022-11-18T01:57:33.187Z,5.95
2022-11-18T01:58:39.097Z,5.38
2022-11-18T01:59:44.141Z,5.88
2022-11-18T02:00:45.715Z,5.45
2022-11-18T02:01:48.080Z,5.85
2022-11-18T02:02:49.810Z,5.53
2022-11-18T02:03:53.491Z,5.25
2022-11-18T02:04:57.074Z,5.22
2022-11-18T02:06:00.586Z,5.15
2022-11-18T02:07:02.896Z,5.47
2022-11-18T02:08:07.591Z,5.60
2022-11-18T02:09:09.310Z,5.53
2022-11-18T02:10:19.674Z,5.28
2022-11-18T02:11:40.086Z,5.63
2022-11-18T02:12:41.683Z,5.45
2022-11-18T02:13:43.227Z,5.55
2022-11-18T02:14:47.236Z,5.82
2022-11-18T02:16:13.604Z,5.07
2022-11-18T02:17:23.951Z,5.22
2022-11-18T02:18:52.282Z,5.50
2022-11-18T02:20:27.020Z,5.20
2022-11-18T02:21:51.323Z,5.32
2022-11-18T02:23:18.122Z,5.47
2022-11-18T02:24:54.856Z,5.28
2022-11-18T02:26:23.893Z,5.03
2022-11-18T02:27:45.309Z,5.18
2022-11-18T02:29:07.485Z,5.50
2022-11-18T02:30:11.946Z,5.10
2022-11-18T02:31:23.626Z,5.28
2022-11-18T02:32:33.031Z,5.78
2022-11-18T02:33:46.484Z,5.22
2022-11-18T02:34:53.802Z,5.20
2022-11-18T02:36:02.632Z,5.00
2022-11-18T02:37:24.390Z,5.32
2022-11-18T02:38:37.557Z,5.18
2022-11-18T02:40:02.576Z,5.00
2022-11-18T02:41:09.305Z,4.82
2022-11-18T02:42:14.994Z,4.72
2022-11-18T02:43:22.730Z,5.30
2022-11-18T02:44:27.591Z,5.15
2022-11-18T02:45:31.338Z,5.20
2022-11-18T02:46:37.234Z,4.88
2022-11-18T02:47:42.270Z,5.40
2022-11-18T02:48:48.662Z,4.90
2022-11-18T02:49:58.859Z,5.28
2022-11-18T02:51:03.173Z,5.25
2022-11-18T02:52:08.615Z,5.00
2022-11-18T02:53:14.205Z,4.82
2022-11-18T02:54:18.139Z,4.57
2022-11-18T02:55:22.102Z,5.15
2022-11-18T02:56:26.947Z,5.32
2022-11-18T02:57:30.382Z,5.57
2022-11-18T02:58:31.963Z,5.20
2022-11-18T02:59:33.826Z,5.15
2022-11-18T03:00:36.359Z,4.85
2022-11-18T03:01:38.402Z,5.45
2022-11-18T03:02:42.643Z,5.20
2022-11-18T03:03:44.275Z,5.60
2022-11-18T03:04:47.654Z,5.10
2022-11-18T03:05:59.966Z,4.95
2022-11-18T03:07:26.000Z,4.70
2022-11-18T03:08:34.950Z,5.25
2022-11-18T03:09:42.574Z,5.05
2022-11-18T03:10:52.767Z,5.03
2022-11-18T03:12:17.239Z,5.00
2022-11-18T03:13:33.977Z,5.45
2022-11-18T03:15:06.466Z,5.07
2022-11-18T03:16:17.883Z,4.93
2022-11-18T03:17:50.346Z,5.40
2022-11-18T03:19:26.077Z,5.25
2022-11-18T03:20:36.340Z,5.10
2022-11-18T03:21:43.610Z,5.10
2022-11-18T03:23:05.052Z,4.85
2022-11-18T03:24:25.711Z,5.07
2022-11-18T03:25:56.659Z,4.93
2022-11-18T03:27:14.140Z,5.20
2022-11-18T03:28:30.856Z,4.93
2022-11-18T03:29:38.419Z,4.90
2022-11-18T03:30:46.797Z,4.72
2022-11-18T03:31:48.299Z,4.78
2022-11-18T03:33:02.603Z,5.22
2022-11-18T03:34:10.524Z,5.18
2022-11-18T03:35:17.983Z,4.75
2022-11-18T03:36:23.208Z,5.18
2022-11-18T03:37:27.355Z,4.72
2022-11-18T03:38:32.536Z,4.78
2022-11-18T03:39:38.120Z,4.75
2022-11-18T03:40:46.405Z,5.50
2022-11-18T03:42:12.308Z,4.95
2022-11-18T03:43:19.054Z,5.05
2022-11-18T03:44:26.283Z,5.10
2022-11-18T03:45:50.573Z,4.63
2022-11-18T03:47:01.042Z,5.00
2022-11-18T03:48:13.983Z,4.70
2022-11-18T03:49:28.683Z,5.03
2022-11-18T03:50:35.074Z,4.63
2022-11-18T03:51:47.108Z,4.78
2022-11-18T03:52:51.039Z,4.97
2022-11-18T03:54:00.006Z,4.72
2022-11-18T03:55:17.084Z,4.85
2022-11-18T03:56:24.115Z,4.95
2022-11-18T03:57:48.560Z,4.68
2022-11-18T03:58:58.100Z,5.05
2022-11-18T04:00:12.817Z,5.03
2022-11-18T04:01:37.396Z,4.70
2022-11-18T04:02:39.515Z,4.63
2022-11-18T04:03:41.502Z,4.80
2022-11-18T04:04:46.358Z,4.90
2022-11-18T04:05:56.465Z,4.63
2022-11-18T04:07:24.903Z,4.88
2022-11-18T04:08:33.283Z,4.50
2022-11-18T04:09:44.017Z,5.20
2022-11-18T04:11:34.633Z,4.60
2022-11-18T04:12:42.379Z,4.53
2022-11-18T04:13:44.532Z,4.93
2022-11-18T04:14:49.832Z,4.55
2022-11-18T04:15:53.756Z,4.72
2022-11-18T04:16:55.458Z,4.70
2022-11-18T04:17:57.103Z,5.00
2022-11-18T04:19:04.388Z,4.97
2022-11-18T04:20:13.620Z,5.03
2022-11-18T04:21:15.163Z,5.07
2022-11-18T04:22:17.816Z,4.93
2022-11-18T04:23:19.338Z,5.07
2022-11-18T04:24:20.868Z,5.28
2022-11-18T04:25:24.490Z,4.82
2022-11-18T04:26:26.025Z,5.32
2022-11-18T04:27:27.627Z,5.15
2022-11-18T04:28:29.202Z,4.85
2022-11-18T04:29:31.998Z,4.88
2022-11-18T04:30:33.692Z,4.68
2022-11-18T04:31:35.202Z,4.78
2022-11-18T04:32:36.800Z,4.90
2022-11-18T04:33:38.359Z,4.50
2022-11-18T04:34:39.979Z,5.00
2022-11-18T04:35:41.499Z,4.57
2022-11-18T04:36:43.124Z,4.45
2022-11-18T04:37:44.867Z,5.07
2022-11-18T04:38:46.464Z,4.75
2022-11-18T04:39:48.043Z,5.03
2022-11-18T04:40:49.700Z,5.00
2022-11-18T04:41:57.260Z,5.18
2022-11-18T04:42:58.790Z,5.15
2022-11-18T04:44:00.338Z,4.65
2022-11-18T04:45:01.961Z,4.85
2022-11-18T04:46:03.564Z,4.80
2022-11-18T04:47:06.619Z,5.13
2022-11-18T04:48:08.165Z,5.45
2022-11-18T04:49:11.744Z,5.10
2022-11-18T04:50:13.379Z,4.78
2022-11-18T04:51:14.935Z,5.18
2022-11-18T04:52:16.697Z,5.20
2022-11-18T04:53:18.227Z,4.95
2022-11-18T04:54:20.632Z,4.88
2022-11-18T04:55:22.252Z,5.20
2022-11-18T04:56:23.860Z,5.18
2022-11-18T04:57:25.378Z,4.95
2022-11-18T04:58:26.934Z,5.00
2022-11-18T04:59:29.925Z,4.72
2022-11-18T05:00:31.454Z,5.10
2022-11-18T05:01:33.210Z,5.00
2022-11-18T05:02:34.749Z,5.00
2022-11-18T05:03:36.285Z,4.63
2022-11-18T05:04:37.862Z,5.13
2022-11-18T05:05:39.371Z,4.75
2022-11-18T05:06:41.434Z,4.72
2022-11-18T05:07:43.066Z,5.22
2022-11-18T05:08:44.645Z,5.03
2022-11-18T05:09:46.191Z,4.68
2022-11-18T05:10:47.719Z,4.95
2022-11-18T05:12:07.484Z,4.88
2022-11-18T05:13:09.017Z,5.50
2022-11-18T05:14:10.792Z,5.03
2022-11-18T05:15:12.321Z,5.13
2022-11-18T05:16:13.814Z,4.90
2022-11-18T05:17:15.390Z,5.20
2022-11-18T05:18:16.912Z,5.10
2022-11-18T05:19:18.683Z,5.20
2022-11-18T05:20:20.368Z,5.20
2022-11-18T05:21:21.929Z,4.90
2022-11-18T05:22:23.587Z,5.35
2022-11-18T05:23:25.154Z,5.35
2022-11-18T05:24:26.723Z,5.03
2022-11-18T05:25:28.295Z,5.68
2022-11-18T05:26:30.151Z,5.43
2022-11-18T05:27:31.727Z,5.07
2022-11-18T05:28:33.315Z,5.13
2022-11-18T05:29:34.866Z,5.40
2022-11-18T05:30:36.481Z,5.63
2022-11-18T05:31:38.013Z,5.53
2022-11-18T05:32:39.529Z,5.53
2022-11-18T05:33:42.542Z,5.30
2022-11-18T05:34:44.098Z,5.22
2022-11-18T05:35:45.675Z,5.43
2022-11-18T05:36:47.288Z,5.13
2022-11-18T05:37:48.828Z,5.38
2022-11-18T05:38:50.599Z,5.60
2022-11-18T05:39:52.165Z,5.75
2022-11-18T05:40:53.719Z,5.72
2022-11-18T05:42:13.432Z,5.72
2022-11-18T05:43:14.995Z,5.55
2022-11-18T05:44:17.055Z,5.60
2022-11-18T05:45:19.481Z,5.50
2022-11-18T05:46:21.017Z,5.35
2022-11-18T05:47:24.968Z,5.80
2022-11-18T05:48:26.876Z,6.00
2022-11-18T05:49:28.505Z,5.93
2022-11-18T05:50:34.882Z,6.00
2022-11-18T05:51:36.734Z,5.40
2022-11-18T05:52:38.291Z,5.47
2022-11-18T05:53:39.847Z,6.05
2022-11-18T05:54:48.742Z,6.15
2022-11-18T05:55:56.480Z,6.03
2022-11-18T05:56:58.036Z,5.85
2022-11-18T05:57:59.554Z,6.22
2022-11-18T05:59:01.134Z,5.63
2022-11-18T06:00:03.983Z,5.82
2022-11-18T06:01:07.198Z,6.10
2022-11-18T06:02:18.031Z,5.72
2022-11-18T06:03:30.255Z,5.82
2022-11-18T06:04:41.612Z,6.00
2022-11-18T06:05:43.325Z,5.72
2022-11-18T06:06:47.729Z,5.80
2022-11-18T06:07:49.340Z,5.60
2022-11-18T06:09:04.093Z,5.65
2022-11-18T06:10:06.445Z,5.80
2022-11-18T06:11:12.795Z,5.60
2022-11-18T06:12:18.316Z,5.70
2022-11-18T06:13:28.678Z,6.32
2022-11-18T06:14:33.773Z,6.32
2022-11-18T06:15:42.477Z,6.18
2022-11-18T06:16:52.267Z,6.00
2022-11-18T06:17:56.715Z,5.72
2022-11-18T06:18:59.107Z,5.75
2022-11-18T06:20:00.885Z,6.15
2022-11-18T06:21:05.473Z,6.43
2022-11-18T06:22:08.590Z,6.10
2022-11-18T06:23:10.459Z,6.18
2022-11-18T06:24:13.628Z,6.55
2022-11-18T06:25:15.828Z,6.00
2022-11-18T06:26:17.729Z,6.07
2022-11-18T06:27:19.626Z,6.40
2022-11-18T06:28:22.714Z,6.72
2022-11-18T06:29:27.918Z,6.35
2022-11-18T06:30:29.843Z,6.35
2022-11-18T06:31:31.367Z,6.10
2022-11-18T06:32:32.933Z,6.22
2022-11-18T06:33:34.656Z,6.20
2022-11-18T06:34:41.273Z,5.55
2022-11-18T06:35:43.574Z,6.65
2022-11-18T06:36:45.104Z,6.20
2022-11-18T06:37:47.044Z,6.63
2022-11-18T06:38:48.585Z,6.18
2022-11-18T06:39:50.212Z,6.90
2022-11-18T06:40:52.327Z,6.40
2022-11-18T06:41:54.377Z,6.78
2022-11-18T06:43:14.458Z,6.55
2022-11-18T06:44:16.863Z,6.32
2022-11-18T06:45:18.524Z,6.75
2022-11-18T06:46:38.628Z,6.53
2022-11-18T06:47:40.173Z,6.20
2022-11-18T06:48:41.724Z,6.22
2022-11-18T06:49:43.271Z,6.90
2022-11-18T06:50:44.839Z,6.43
2022-11-18T06:51:46.474Z,6.18
2022-11-18T06:52:48.054Z,6.40
2022-11-18T06:53:50.131Z,6.63
2022-11-18T06:54:51.751Z,6.80
2022-11-18T06:55:53.303Z,6.65
2022-11-18T06:56:55.009Z,6.80
2022-11-18T06:57:57.348Z,6.80
2022-11-18T06:58:59.571Z,6.88
2022-11-18T07:00:02.491Z,6.38
2022-11-18T07:01:19.449Z,6.35
2022-11-18T07:02:21.066Z,6.93
2022-11-18T07:03:22.934Z,6.53
2022-11-18T07:04:24.490Z,6.57
2022-11-18T07:05:26.018Z,7.07
2022-11-18T07:06:29.853Z,6.10
2022-11-18T07:07:31.503Z,6.40
2022-11-18T07:08:35.935Z,6.85
2022-11-18T07:09:38.091Z,6.80
2022-11-18T07:10:39.669Z,6.53
2022-11-18T07:11:41.507Z,6.78
2022-11-18T07:12:43.169Z,6.68
2022-11-18T07:13:45.278Z,6.95
2022-11-18T07:14:47.251Z,6.97
2022-11-18T07:15:48.766Z,6.65
2022-11-18T07:16:50.301Z,6.40
2022-11-18T07:17:51.911Z,6.80
2022-11-18T07:18:55.688Z,7.03
2022-11-18T07:19:57.339Z,6.03
2022-11-18T07:21:05.531Z,6.43
2022-11-18T07:22:08.180Z,7.05
2022-11-18T07:23:09.708Z,7.10
2022-11-18T07:24:15.576Z,7.00
2022-11-18T07:25:17.320Z,6.80
2022-11-18T07:26:19.507Z,6.45
2022-11-18T07:27:21.077Z,7.32
2022-11-18T07:28:22.718Z,5.97
2022-11-18T07:29:24.269Z,6.95
2022-11-18T07:30:25.833Z,7.30
2022-11-18T07:31:27.605Z,6.70
2022-11-18T07:32:29.164Z,7.30
2022-11-18T07:33:32.219Z,7.00
2022-11-18T07:34:33.804Z,6.75
2022-11-18T07:35:35.327Z,6.43
2022-11-18T07:36:36.863Z,7.00
2022-11-18T07:37:38.440Z,6.72
2022-11-18T07:38:40.931Z,7.63
2022-11-18T07:39:42.562Z,6.70
2022-11-18T07:40:44.132Z,7.15
2022-11-18T07:41:45.679Z,7.00
2022-11-18T07:42:47.272Z,7.55
2022-11-18T07:43:50.483Z,7.05
2022-11-18T07:44:52.093Z,7.53
2022-11-18T07:45:53.703Z,7.45
2022-11-18T07:46:55.231Z,7.32
2022-11-18T07:47:56.784Z,7.13
2022-11-18T07:49:00.750Z,7.57
2022-11-18T07:50:02.330Z,7.40
2022-11-18T07:51:04.057Z,7.00
2022-11-18T07:52:05.615Z,7.30
2022-11-18T07:53:07.150Z,7.07
2022-11-18T07:54:10.997Z,7.30
2022-11-18T07:55:12.539Z,7.38
2022-11-18T07:56:15.355Z,6.85
2022-11-18T07:57:16.950Z,7.75
2022-11-18T07:58:18.531Z,7.28
2022-11-18T07:59:20.347Z,7.43
2022-11-18T08:00:22.352Z,7.10
2022-11-18T08:01:29.030Z,6.97
2022-11-18T08:02:30.802Z,7.20
2022-11-18T08:03:32.328Z,7.32
2022-11-18T08:04:33.864Z,7.10
2022-11-18T08:05:35.450Z,7.47
2022-11-18T08:06:37.784Z,6.93
2022-11-18T08:07:39.460Z,7.10
2022-11-18T08:08:41.557Z,7.35
2022-11-18T08:09:43.150Z,7.38
2022-11-18T08:10:44.700Z,7.13
2022-11-18T08:11:46.323Z,7.22
2022-11-18T08:12:47.952Z,7.40
2022-11-18T08:13:50.129Z,7.03
2022-11-18T08:14:51.735Z,7.25
2022-11-18T08:15:54.257Z,7.05
2022-11-18T08:16:55.969Z,7.35
2022-11-18T08:17:57.518Z,6.82
2022-11-18T08:19:00.829Z,6.88
2022-11-18T08:20:02.506Z,7.32
2022-11-18T08:21:04.729Z,7.50
2022-11-18T08:22:06.262Z,7.47
2022-11-18T08:23:07.876Z,6.75
2022-11-18T08:24:10.256Z,8.00
2022-11-18T08:25:11.868Z,7.70
2022-11-18T08:26:14.928Z,7.45
2022-11-18T08:27:16.550Z,7.75
2022-11-18T08:28:18.135Z,6.85
2022-11-18T08:29:24.690Z,7.65
2022-11-18T08:30:26.730Z,7.72
2022-11-18T08:31:30.645Z,7.38
2022-11-18T08:32:32.315Z,7.60
2022-11-18T08:33:33.903Z,7.63
2022-11-18T08:34:35.652Z,7.32
2022-11-18T08:35:37.170Z,7.30
2022-11-18T08:36:39.391Z,7.55
2022-11-18T08:37:41.019Z,7.45
2022-11-18T08:38:42.684Z,7.63
2022-11-18T08:39:44.263Z,7.63
2022-11-18T08:40:48.141Z,7.32
2022-11-18T08:41:50.426Z,7.53
2022-11-18T08:42:52.043Z,7.45
2022-11-18T08:43:53.600Z,7.50
2022-11-18T08:44:55.332Z,7.93
2022-11-18T08:45:56.917Z,7.05
2022-11-18T08:46:58.516Z,7.32
2022-11-18T08:48:00.084Z,7.30
2022-11-18T08:49:01.814Z,8.50
2022-11-18T08:50:05.707Z,7.93
2022-11-18T08:51:11.440Z,7.70
2022-11-18T08:52:14.304Z,8.02
2022-11-18T08:53:15.991Z,7.53
2022-11-18T08:54:17.593Z,7.80
2022-11-18T08:55:19.157Z,7.72
2022-11-18T08:56:22.103Z,7.03
2022-11-18T08:57:23.978Z,7.78
2022-11-18T08:58:26.405Z,8.18
2022-11-18T08:59:28.000Z,7.35
2022-11-18T09:00:29.673Z,8.05
2022-11-18T09:01:31.303Z,7.75
2022-11-18T09:02:32.899Z,8.07
2022-11-18T09:03:35.076Z,8.25
2022-11-18T09:04:36.614Z,7.85
2022-11-18T09:05:38.167Z,8.05
2022-11-18T09:06:40.398Z,8.13
2022-11-18T09:07:42.007Z,7.70
2022-11-18T09:08:44.125Z,7.82
2022-11-18T09:09:45.882Z,7.78
2022-11-18T09:10:47.509Z,7.32
2022-11-18T09:11:49.176Z,8.10
2022-11-18T09:12:50.719Z,7.97
2022-11-18T09:14:38.961Z,7.95
2022-11-18T09:15:15.843Z,8.02
2022-11-18T09:16:17.681Z,7.93
2022-11-18T09:17:19.188Z,7.32
2022-11-18T09:18:20.732Z,7.55
2022-11-18T09:19:46.193Z,7.85
2022-11-18T09:20:57.322Z,8.00
2022-11-18T09:21:59.175Z,7.85
2022-11-18T09:23:00.716Z,7.78
2022-11-18T09:24:05.301Z,7.57
2022-11-18T09:25:07.459Z,8.20
2022-11-18T09:26:12.443Z,7.70
2022-11-18T09:27:17.375Z,7.72
2022-11-18T09:28:19.291Z,8.35
2022-11-18T09:29:25.308Z,7.90
2022-11-18T09:30:27.075Z,8.02
2022-11-18T09:31:28.657Z,7.93
2022-11-18T09:32:30.272Z,8.20
2022-11-18T09:33:32.092Z,7.90
2022-11-18T09:34:35.403Z,8.07
2022-11-18T09:35:42.412Z,8.05
2022-11-18T09:36:43.937Z,7.60
2022-11-18T09:37:45.519Z,8.20
2022-11-18T09:38:51.648Z,7.53
2022-11-18T09:39:54.649Z,8.30
2022-11-18T09:41:01.976Z,7.78
2022-11-18T09:42:12.651Z,8.20
2022-11-18T09:43:43.456Z,8.07
2022-11-18T09:44:57.106Z,8.05
2022-11-18T09:46:08.279Z,7.93
2022-11-18T09:47:36.463Z,7.88
2022-11-18T09:48:56.322Z,8.07
2022-11-18T09:50:26.940Z,7.80
2022-11-18T09:51:28.899Z,8.55
2022-11-18T09:52:39.308Z,8.60
2022-11-18T09:53:45.080Z,7.78
2022-11-18T09:54:46.933Z,7.75
2022-11-18T09:55:50.967Z,8.10
2022-11-18T09:56:55.153Z,7.97
2022-11-18T09:57:59.409Z,8.68
2022-11-18T09:59:01.025Z,8.18
2022-11-18T10:00:06.555Z,8.43
2022-11-18T10:01:19.871Z,8.43
2022-11-18T10:02:47.841Z,8.50
2022-11-18T10:03:49.486Z,8.07
2022-11-18T10:04:52.120Z,7.68
2022-11-18T10:06:09.520Z,7.93
2022-11-18T10:07:26.478Z,7.50
2022-11-18T10:09:02.717Z,8.13
2022-11-18T10:10:12.595Z,8.65
2022-11-18T10:11:18.330Z,8.15
2022-11-18T10:12:44.116Z,8.50
2022-11-18T10:14:01.567Z,8.30
2022-11-18T10:15:35.515Z,8.43
2022-11-18T10:17:05.963Z,8.40
2022-11-18T10:18:22.172Z,7.75
2022-11-18T10:19:44.311Z,8.30
2022-11-18T10:21:07.289Z,8.07
2022-11-18T10:22:33.264Z,8.05
2022-11-18T10:23:59.476Z,8.10
2022-11-18T10:25:01.196Z,7.75
2022-11-18T10:26:02.783Z,7.60
2022-11-18T10:27:11.747Z,8.48
2022-11-18T10:28:31.213Z,8.48
2022-11-18T10:29:32.771Z,8.15
2022-11-18T10:30:34.351Z,7.72
2022-11-18T10:31:38.591Z,8.05
2022-11-18T10:33:01.002Z,8.10
2022-11-18T10:34:03.773Z,8.60
2022-11-18T10:35:35.806Z,7.93
2022-11-18T10:36:38.057Z,7.97
2022-11-18T10:38:06.096Z,8.10
2022-11-18T10:39:14.127Z,8.43
2022-11-18T10:40:25.686Z,8.27
2022-11-18T10:41:27.300Z,8.13
2022-11-18T10:42:41.381Z,8.15
2022-11-18T10:43:47.792Z,8.07
2022-11-18T10:44:49.400Z,8.50
2022-11-18T10:45:50.939Z,8.23
2022-11-18T10:46:52.585Z,8.27
2022-11-18T10:48:19.161Z,8.38
2022-11-18T10:49:20.844Z,8.45
2022-11-18T10:50:31.496Z,7.93
2022-11-18T10:51:33.043Z,8.40
2022-11-18T10:52:52.219Z,7.82
2022-11-18T10:54:08.314Z,8.07
2022-11-18T10:55:22.063Z,8.30
2022-11-18T10:56:23.676Z,8.50
2022-11-18T10:57:26.135Z,8.13
2022-11-18T10:58:30.978Z,8.35
2022-11-18T10:59:41.320Z,7.93
2022-11-18T11:00:46.857Z,7.40
2022-11-18T11:02:20.625Z,7.82
2022-11-18T11:03:24.220Z,7.60
2022-11-18T11:04:27.446Z,7.72
2022-11-18T11:05:29.085Z,7.65
2022-11-18T11:06:31.096Z,7.60
2022-11-18T11:07:37.887Z,7.72
2022-11-18T11:08:53.979Z,8.70
2022-11-18T11:10:04.703Z,7.60
2022-11-18T11:11:06.253Z,7.60
2022-11-18T11:12:15.886Z,7.57
2022-11-18T11:13:18.072Z,8.35
2022-11-18T11:14:31.521Z,7.90
2022-11-18T11:15:33.014Z,8.27
2022-11-18T11:16:43.947Z,8.57
2022-11-18T11:18:13.983Z,7.75
2022-11-18T11:19:20.214Z,7.95
2022-11-18T11:20:24.109Z,7.78
2022-11-18T11:21:29.825Z,8.68
2022-11-18T11:22:31.771Z,8.02
2022-11-18T11:23:34.092Z,8.30
2022-11-18T11:24:35.709Z,8.23
2022-11-18T11:29:23.786Z,8.38
2022-11-18T11:30:25.567Z,8.00
2022-11-18T11:31:39.595Z,8.23
2022-11-18T11:32:59.842Z,8.30
2022-11-18T11:34:22.773Z,8.43
2022-11-18T11:35:24.387Z,7.88
2022-11-18T11:36:41.152Z,7.50
2022-11-18T11:37:51.464Z,7.63
2022-11-18T11:39:14.816Z,8.15
2022-11-18T11:40:33.728Z,8.10
2022-11-18T11:41:49.658Z,8.05
2022-11-18T11:43:29.903Z,7.50
2022-11-18T11:44:54.506Z,7.93
2022-11-18T11:46:20.178Z,8.07
2022-11-18T11:48:05.501Z,7.75
2022-11-18T11:49:14.952Z,7.88
2022-11-18T11:51:00.128Z,8.13
2022-11-18T11:52:19.576Z,7.57
2022-11-18T11:53:48.901Z,8.30
2022-11-18T11:54:50.449Z,7.88
2022-11-18T11:56:04.005Z,8.40
2022-11-18T11:57:28.685Z,8.68
2022-11-18T11:58:51.048Z,7.82
2022-11-18T12:00:02.642Z,9.15
2022-11-18T12:01:27.648Z,8.27
2022-11-18T12:02:56.686Z,8.55
2022-11-18T12:04:27.605Z,8.48
2022-11-18T12:05:34.204Z,8.32
2022-11-18T12:06:35.956Z,8.23
2022-11-18T12:07:49.063Z,8.43
2022-11-18T12:09:05.846Z,8.38
2022-11-18T12:10:30.945Z,8.20
2022-11-18T12:11:46.375Z,8.60
2022-11-18T12:13:21.566Z,8.30
2022-11-18T12:14:26.009Z,7.90
2022-11-18T12:15:27.663Z,8.45
2022-11-18T12:16:46.614Z,8.82
2022-11-18T12:18:09.031Z,8.75
2022-11-18T12:19:19.643Z,8.43
2022-11-18T12:20:44.966Z,8.52
2022-11-18T12:21:46.619Z,9.00
2022-11-18T12:23:11.781Z,8.43
2022-11-18T12:24:32.996Z,8.52
2022-11-18T12:25:46.619Z,8.30
2022-11-18T12:26:50.148Z,8.45
2022-11-18T12:27:59.532Z,8.07
2022-11-18T12:29:21.358Z,8.40
2022-11-18T12:30:23.156Z,9.50
2022-11-18T12:31:24.660Z,8.90
2022-11-18T12:32:32.577Z,8.75
2022-11-18T12:33:44.500Z,9.07
2022-11-18T12:34:53.400Z,8.32
2022-11-18T12:35:55.023Z,9.05
2022-11-18T12:36:56.894Z,8.43
2022-11-18T12:38:01.068Z,8.30
2022-11-18T12:39:25.718Z,9.18
2022-11-18T12:40:52.222Z,8.55
2022-11-18T12:42:16.163Z,9.07
2022-11-18T12:43:45.129Z,8.48
2022-11-18T12:44:49.419Z,8.80
2022-11-18T12:45:55.788Z,8.55
2022-11-18T12:47:01.353Z,8.70
2022-11-18T12:48:03.406Z,8.57
2022-11-18T12:49:22.934Z,9.15
2022-11-18T12:50:47.952Z,8.60
2022-11-18T12:51:51.424Z,8.25
2022-11-18T12:52:53.551Z,8.65
2022-11-18T12:53:55.094Z,8.43
2022-11-18T12:55:13.301Z,8.60
2022-11-18T12:56:17.905Z,7.93
2022-11-18T12:57:27.008Z,8.13
2022-11-18T12:58:28.579Z,8.48
2022-11-18T12:59:33.903Z,8.60
2022-11-18T13:00:52.486Z,8.48
2022-11-18T13:02:03.707Z,8.60
2022-11-18T13:03:05.477Z,8.13
2022-11-18T13:04:09.064Z,8.82
2022-11-18T13:05:13.121Z,8.50
2022-11-18T13:06:28.416Z,8.25
2022-11-18T13:08:08.917Z,8.82
2022-11-18T13:09:39.864Z,8.35
2022-11-18T13:10:44.409Z,8.43
2022-11-18T13:11:54.249Z,8.50
2022-11-18T13:12:56.200Z,8.70
2022-11-18T13:14:16.643Z,8.07
2022-11-18T13:15:37.293Z,8.68
2022-11-18T13:16:58.152Z,8.70
2022-11-18T13:18:15.376Z,8.23
2022-11-18T13:19:24.246Z,8.40
2022-11-18T13:20:33.631Z,8.20
2022-11-18T13:21:54.455Z,8.13
2022-11-18T13:23:16.885Z,8.27
2022-11-18T13:24:20.546Z,8.32
2022-11-18T13:25:24.808Z,8.52
2022-11-18T13:26:32.911Z,7.88
2022-11-18T13:28:18.492Z,8.18
2022-11-18T13:29:20.572Z,8.10
2022-11-18T13:30:22.443Z,8.82
2022-11-18T13:31:29.977Z,8.80
2022-11-18T13:32:31.929Z,8.35
2022-11-18T13:33:38.720Z,7.80
2022-11-18T13:34:51.237Z,7.78
2022-11-18T13:35:52.866Z,7.47
2022-11-18T13:36:56.949Z,8.25
2022-11-18T13:38:01.113Z,7.75
2022-11-18T13:39:06.875Z,8.00
2022-11-18T13:40:19.516Z,8.15
2022-11-18T13:41:24.560Z,8.10
2022-11-18T13:42:29.089Z,7.72
2022-11-18T13:43:39.852Z,8.48
2022-11-18T13:44:55.174Z,7.70
2022-11-18T13:45:57.846Z,7.18
2022-11-18T13:47:11.273Z,7.22
2022-11-18T13:48:15.117Z,8.30
2022-11-18T13:49:21.080Z,7.63
2022-11-18T13:50:35.525Z,7.32
2022-11-18T13:51:38.737Z,7.45
2022-11-18T13:53:19.194Z,8.15
2022-11-18T13:54:25.125Z,7.63
2022-11-18T13:55:30.843Z,7.85
2022-11-18T13:56:35.251Z,7.97
2022-11-18T13:57:37.648Z,7.40
2022-11-18T14:00:21.574Z,7.57
2022-11-18T14:01:25.927Z,7.65
2022-11-18T14:02:27.665Z,7.50
2022-11-18T14:03:38.088Z,6.70
2022-11-18T14:04:57.135Z,6.93
2022-11-18T14:05:59.273Z,7.38
2022-11-18T14:07:23.251Z,6.75
2022-11-18T14:08:36.395Z,6.88
2022-11-18T14:09:38.013Z,6.80
2022-11-18T14:10:44.597Z,7.10
2022-11-18T14:11:57.054Z,6.95
2022-11-18T14:13:00.954Z,7.22
2022-11-18T14:14:02.698Z,6.85
2022-11-18T14:15:20.634Z,6.93
2022-11-18T14:16:22.089Z,7.03
2022-11-18T14:17:28.116Z,6.82
2022-11-18T14:18:36.056Z,7.07
2022-11-18T14:19:38.409Z,6.78
2022-11-18T14:20:40.071Z,6.10
2022-11-18T14:21:41.770Z,7.22
2022-11-18T14:22:43.854Z,6.60
2022-11-18T14:23:45.506Z,6.68
2022-11-18T14:25:00.230Z,6.65
2022-11-18T14:26:04.760Z,6.50
2022-11-18T14:27:36.376Z,6.38
2022-11-18T14:28:38.418Z,6.45
2022-11-18T14:29:49.803Z,6.30
2022-11-18T14:31:17.377Z,6.20
2022-11-18T14:32:18.952Z,6.45
2022-11-18T14:33:35.543Z,5.97
2022-11-18T14:34:37.304Z,6.00
2022-11-18T14:35:40.059Z,6.22
2022-11-18T14:36:41.933Z,6.47
2022-11-18T14:37:43.608Z,6.30
2022-11-18T14:39:11.834Z,6.25
2022-11-18T14:40:13.755Z,6.28
2022-11-18T14:41:42.622Z,6.35
2022-11-18T14:42:45.396Z,6.68
2022-11-18T14:43:47.171Z,6.22
2022-11-18T14:44:48.685Z,6.18
2022-11-18T14:45:51.073Z,6.07
2022-11-18T14:46:57.177Z,5.93
2022-11-18T14:47:59.058Z,6.50
2022-11-18T14:49:06.493Z,5.90
2022-11-18T14:50:15.244Z,6.13
2022-11-18T14:51:17.222Z,5.97
2022-11-18T14:52:18.927Z,5.53
2022-11-18T14:53:21.379Z,6.10
2022-11-18T14:54:27.239Z,5.95
2022-11-18T14:55:29.475Z,5.70
2022-11-18T14:56:32.907Z,6.35
2022-11-18T14:57:34.454Z,6.35
2022-11-18T14:58:35.967Z,6.10